Time;durP1;ratioP1;P1;durP2;ratioP2;P2;SDS_P1;SDS_P2;PMS_P1;PMS_P2;Temp;Humidity;BMP_temperature;BMP_pressure;BME280_temperature;BME280_humidity;BME280_pressure;Samples;Min_cycle;Max_cycle;Signal;HPM_P1;HPM_P2
2022/05/16 00:01:49;;;;;;;;;;;;;;;20.02;42.02;101201.59;5094794;28;19919;-68
2022/05/16 00:04:15;;;;;;;;;;;;;;;20.02;42.33;101207.81;5092436;28;20336;-68
2022/05/16 00:06:40;;;;;;;;;;;;;;;20.01;42.60;101202.59;5094203;28;20264;-68
2022/05/16 00:09:06;;;;;;;;;;;;;;;19.94;43.19;101197.78;5094099;28;19915;-68
2022/05/16 00:11:31;;;;;;;;;;;;;;;19.91;42.44;101208.00;5093235;28;20287;-68
2022/05/16 00:13:56;;;;;;;;;;;;;;;19.89;42.60;101197.38;5092562;28;20002;-68
2022/05/16 00:16:22;;;;;;;;;;;;;;;19.86;43.15;101191.44;5092926;28;19945;-68
2022/05/16 00:18:47;;;;;;;;;;;;;;;19.86;42.64;101197.69;5092133;28;20339;-68
2022/05/16 00:21:12;;;;;;;;;;;;;;;19.83;43.15;101183.63;5093415;28;19919;-68
2022/05/16 00:23:40;;;;;;;;;;;;;;;19.81;43.58;101182.94;5100466;28;19937;-68
2022/05/16 00:26:05;;;;;;;;;;;;;;;19.78;43.19;101183.22;5093346;28;19933;-68
2022/05/16 00:28:32;;;;;;;;;;;;;;;19.74;42.83;101183.53;5092607;28;19916;-68
2022/05/16 00:30:58;;;;;;;;;;;;;;;19.71;43.08;101181.13;5093763;28;19923;-68
2022/05/16 00:33:24;;;;;;;;;;;;;;;19.67;43.19;101181.56;5093646;28;20260;-69
2022/05/16 00:35:49;;;;;;;;;;;;;;;19.67;43.23;101178.84;5091962;28;19920;-68
2022/05/16 00:38:14;;;;;;;;;;;;;;;19.67;43.00;101185.09;5093532;28;19981;-68
2022/05/16 00:40:40;;;;;;;;;;;;;;;19.66;43.41;101180.72;5094326;28;19953;-68
2022/05/16 00:43:09;;;;;;;;;;;;;;;19.62;43.65;101181.97;5093595;28;19912;-68
2022/05/16 00:45:35;;;;;;;;;;;;;;;19.57;42.98;101178.88;5093517;28;19920;-68
2022/05/16 00:48:00;;;;;;;;;;;;;;;19.54;43.84;101184.56;5092107;28;20050;-68
2022/05/16 00:50:28;;;;;;;;;;;;;;;19.49;43.46;101181.44;5091879;28;19911;-67
2022/05/16 00:52:54;;;;;;;;;;;;;;;19.46;44.40;101179.03;5094753;28;20017;-67
2022/05/16 00:55:25;;;;;;;;;;;;;;;19.44;43.33;101183.72;5092512;28;20014;-68
2022/05/16 00:57:53;;;;;;;;;;;;;;;19.41;44.21;101178.63;5091608;28;19923;-68
2022/05/16 01:00:21;;;;;;;;;;;;;;;19.39;44.14;101168.00;5090848;28;20394;-68
2022/05/16 01:05:32;;;;;;;;;;;;;;;19.33;44.60;101160.47;5094873;28;20421;-68
2022/05/16 01:08:01;;;;;;;;;;;;;;;19.33;45.36;101159.63;5091974;28;19974;-68
2022/05/16 01:10:29;;;;;;;;;;;;;;;19.28;43.89;101160.06;5092362;28;19912;-68
2022/05/16 01:12:54;;;;;;;;;;;;;;;19.23;45.26;101157.78;5095196;28;19920;-68
2022/05/16 01:15:26;;;;;;;;;;;;;;;19.19;44.63;101160.94;5092351;28;20323;-68
2022/05/16 01:17:51;;;;;;;;;;;;;;;19.17;45.35;101158.38;5092684;28;20290;-68
2022/05/16 01:20:19;;;;;;;;;;;;;;;19.15;44.86;101165.78;5090249;28;19919;-68
2022/05/16 01:22:49;;;;;;;;;;;;;;;19.14;44.68;101172.16;5091858;28;20396;-68
2022/05/16 01:25:21;;;;;;;;;;;;;;;19.13;45.50;101178.53;5089326;28;19912;-68
2022/05/16 01:27:46;;;;;;;;;;;;;;;19.05;46.31;101179.25;5091831;28;20439;-69
2022/05/16 01:30:13;;;;;;;;;;;;;;;18.97;45.32;101170.19;5092329;28;19954;-69
2022/05/16 01:32:39;;;;;;;;;;;;;;;18.95;45.94;101164.09;5090992;28;20425;-69
2022/05/16 01:35:04;;;;;;;;;;;;;;;18.95;45.96;101164.94;5092095;28;19920;-68
2022/05/16 01:40:14;;;;;;;;;;;;;;;18.94;44.81;101160.56;5091949;28;19942;-67
2022/05/16 01:42:40;;;;;;;;;;;;;;;18.90;44.87;101161.81;5092144;28;19912;-67
2022/05/16 01:45:05;;;;;;;;;;;;;;;18.83;45.88;101161.56;5088888;28;19920;-68
2022/05/16 01:47:33;;;;;;;;;;;;;;;18.81;44.98;101155.44;5075497;28;19916;-68
2022/05/16 01:49:58;;;;;;;;;;;;;;;18.83;46.90;101158.84;5090398;28;19924;-68
2022/05/16 01:52:23;;;;;;;;;;;;;;;18.76;45.85;101149.63;5091490;28;19965;-67
2022/05/16 01:54:49;;;;;;;;;;;;;;;18.72;45.87;101152.72;5090308;28;20015;-67
2022/05/16 01:57:14;;;;;;;;;;;;;;;18.72;47.05;101142.78;5091037;28;20002;-67
2022/05/16 01:59:39;;;;;;;;;;;;;;;18.72;47.82;101150.03;5089736;28;20011;-68
2022/05/16 02:02:05;;;;;;;;;;;;;;;18.69;46.61;101139.53;5088795;28;19916;-67
2022/05/16 02:04:30;;;;;;;;;;;;;;;18.70;47.12;101141.22;5090342;28;19920;-67
2022/05/16 02:06:58;;;;;;;;;;;;;;;18.62;48.77;101139.25;5088980;28;20424;-68
2022/05/16 02:09:24;;;;;;;;;;;;;;;18.53;47.28;101135.56;5090435;28;19920;-68
2022/05/16 02:11:49;;;;;;;;;;;;;;;18.55;46.24;101141.66;5093738;28;20078;-67
2022/05/16 02:14:15;;;;;;;;;;;;;;;18.55;48.74;101130.03;5091591;28;19982;-67
2022/05/16 02:16:40;;;;;;;;;;;;;;;18.51;47.25;101117.84;5089756;28;19943;-67
2022/05/16 02:19:06;;;;;;;;;;;;;;;18.54;48.21;101122.97;5089896;28;19927;-67
2022/05/16 02:27:00;;;;;;;;;;;;;;;18.49;47.97;101119.81;5090984;28;19965;-68
2022/05/16 02:29:26;;;;;;;;;;;;;;;18.43;48.98;101123.09;5093087;28;19911;-67
2022/05/16 02:31:51;;;;;;;;;;;;;;;18.37;48.72;101117.25;5091202;28;19916;-67
2022/05/16 02:34:17;;;;;;;;;;;;;;;18.37;48.37;101119.13;5088425;28;19947;-68
2022/05/16 02:36:44;;;;;;;;;;;;;;;18.36;49.92;101109.34;5089965;28;20023;-67
2022/05/16 02:39:09;;;;;;;;;;;;;;;18.32;48.50;101110.59;5087632;28;20133;-68
2022/05/16 02:41:37;;;;;;;;;;;;;;;18.29;49.13;101109.03;5092579;28;19982;-68
2022/05/16 02:44:02;;;;;;;;;;;;;;;18.33;49.30;101104.25;5090830;28;19977;-69
2022/05/16 02:46:28;;;;;;;;;;;;;;;18.34;48.28;101101.38;5091026;28;19947;-68
2022/05/16 02:48:53;;;;;;;;;;;;;;;18.31;50.02;101098.97;5088894;28;19935;-69
2022/05/16 02:51:21;;;;;;;;;;;;;;;18.27;49.35;101102.13;5106961;28;20018;-68
2022/05/16 02:53:47;;;;;;;;;;;;;;;18.25;48.51;101087.94;5091174;28;19999;-68
2022/05/16 02:56:12;;;;;;;;;;;;;;;18.27;49.22;101088.66;5090080;28;20053;-68
2022/05/16 02:58:38;;;;;;;;;;;;;;;18.28;49.88;101091.19;5091221;28;19916;-68
2022/05/16 03:01:03;;;;;;;;;;;;;;;18.23;49.13;101088.06;5091295;28;19919;-68
2022/05/16 03:03:29;;;;;;;;;;;;;;;18.27;49.38;101081.41;5090655;28;20348;-69
2022/05/16 03:05:54;;;;;;;;;;;;;;;18.28;49.10;101076.88;5089638;28;20022;-68
2022/05/16 03:08:20;;;;;;;;;;;;;;;18.26;49.67;101078.84;5090980;28;19911;-68
2022/05/16 03:10:45;;;;;;;;;;;;;;;18.21;49.39;101076.59;5091040;28;19950;-68
2022/05/16 03:13:11;;;;;;;;;;;;;;;18.21;50.08;101081.13;5088619;28;20289;-68
2022/05/16 03:15:36;;;;;;;;;;;;;;;18.19;49.40;101077.72;5093367;28;19912;-68
2022/05/16 03:18:02;;;;;;;;;;;;;;;18.13;50.92;101077.28;5088401;28;19942;-68
2022/05/16 03:20:27;;;;;;;;;;;;;;;18.02;49.92;101082.78;5092335;28;19916;-68
2022/05/16 03:22:53;;;;;;;;;;;;;;;17.96;51.32;101080.66;5098300;28;19916;-68
2022/05/16 03:25:19;;;;;;;;;;;;;;;17.90;50.81;101076.69;5096274;28;19915;-68
2022/05/16 03:27:45;;;;;;;;;;;;;;;17.88;50.80;101077.81;5091277;28;19919;-68
2022/05/16 03:30:10;;;;;;;;;;;;;;;17.83;51.36;101080.09;5092959;28;19919;-68
2022/05/16 03:32:36;;;;;;;;;;;;;;;17.82;51.56;101084.59;5095872;28;19916;-67
2022/05/16 03:35:02;;;;;;;;;;;;;;;17.81;50.42;101080.22;5093560;28;19916;-68
2022/05/16 03:37:27;;;;;;;;;;;;;;;17.85;49.99;101084.34;5095560;28;19943;-67
2022/05/16 03:42:37;;;;;;;;;;;;;;;17.88;50.76;101080.50;5094081;28;20289;-68
2022/05/16 03:45:05;;;;;;;;;;;;;;;17.87;49.79;101076.13;5094946;28;20006;-68
2022/05/16 03:47:31;;;;;;;;;;;;;;;17.87;49.49;101076.97;5095901;28;20361;-68
2022/05/16 03:49:56;;;;;;;;;;;;;;;17.86;50.60;101072.56;5093597;28;20019;-68
2022/05/16 03:52:21;;;;;;;;;;;;;;;17.86;49.91;101074.41;5093285;28;19912;-68
2022/05/16 03:54:47;;;;;;;;;;;;;;;17.86;49.57;101082.50;5077263;28;20015;-68
2022/05/16 03:57:12;;;;;;;;;;;;;;;17.83;49.41;101078.25;5108404;28;19969;-68
2022/05/16 03:59:38;;;;;;;;;;;;;;;17.84;49.19;101074.53;5092741;28;20050;-68
2022/05/16 04:02:05;;;;;;;;;;;;;;;17.85;49.91;101076.25;5094146;28;19932;-68
2022/05/16 04:04:30;;;;;;;;;;;;;;;17.81;51.41;101069.44;5093290;28;20279;-68
2022/05/16 04:06:56;;;;;;;;;;;;;;;17.70;50.23;101072.22;5094235;28;19912;-68
2022/05/16 04:09:22;;;;;;;;;;;;;;;17.69;49.47;101074.06;5126507;27;19923;-68
2022/05/16 04:11:47;;;;;;;;;;;;;;;17.69;50.20;101081.28;5093507;28;19955;-68
2022/05/16 04:14:13;;;;;;;;;;;;;;;17.66;50.91;101078.88;5097877;28;19969;-68
2022/05/16 04:16:38;;;;;;;;;;;;;;;17.68;51.35;101090.34;5094626;28;19916;-68
2022/05/16 04:19:06;;;;;;;;;;;;;;;17.64;52.10;101089.75;5096459;28;20283;-67
2022/05/16 04:21:32;;;;;;;;;;;;;;;17.66;52.64;101092.31;5098477;28;19919;-68
2022/05/16 04:23:57;;;;;;;;;;;;;;;17.63;50.85;101081.81;5094950;28;19911;-68
2022/05/16 04:26:25;;;;;;;;;;;;;;;17.68;51.44;101084.97;5102157;28;19930;-68
2022/05/16 04:28:50;;;;;;;;;;;;;;;17.67;52.00;101089.47;5092942;28;19924;-68
2022/05/16 04:31:16;;;;;;;;;;;;;;;17.67;52.18;101081.41;5096785;28;19939;-68
2022/05/16 04:33:42;;;;;;;;;;;;;;;17.68;52.34;101087.66;5091307;28;19965;-68
2022/05/16 04:36:07;;;;;;;;;;;;;;;17.69;52.45;101090.19;5097373;28;20294;-67
2022/05/16 04:38:33;;;;;;;;;;;;;;;17.71;52.40;101090.06;5092615;28;19916;-69
2022/05/16 04:43:42;;;;;;;;;;;;;;;17.82;51.43;101086.44;5113218;28;19923;-68
2022/05/16 04:46:08;;;;;;;;;;;;;;;17.83;51.58;101083.63;5097258;28;20279;-68
2022/05/16 04:48:34;;;;;;;;;;;;;;;17.83;52.63;101093.53;5093527;28;19965;-69
2022/05/16 04:50:59;;;;;;;;;;;;;;;17.82;52.78;101092.66;5092894;28;20042;-68
2022/05/16 04:53:24;;;;;;;;;;;;;;;17.82;53.15;101097.19;5089766;28;19927;-68
2022/05/16 04:55:50;;;;;;;;;;;;;;;17.80;53.28;101091.97;5095251;28;19924;-68
2022/05/16 04:58:15;;;;;;;;;;;;;;;17.79;52.98;101095.63;5090924;28;19919;-68
2022/05/16 05:00:41;;;;;;;;;;;;;;;17.84;53.13;101098.75;5091573;28;20716;-68
2022/05/16 05:03:07;;;;;;;;;;;;;;;17.91;52.72;101107.13;5092561;28;19920;-68
2022/05/16 05:05:32;;;;;;;;;;;;;;;18.01;52.27;101097.25;5093648;28;20009;-67
2022/05/16 05:07:57;;;;;;;;;;;;;;;18.03;52.20;101089.91;5092730;28;20432;-68
2022/05/16 05:15:58;;;;;;;;;;;;;;;18.20;51.92;101107.19;5091595;28;19946;-68
2022/05/16 05:18:24;;;;;;;;;;;;;;;18.28;52.73;101098.41;5088439;28;19920;-68
2022/05/16 05:20:50;;;;;;;;;;;;;;;18.32;51.98;101102.50;5091509;28;20370;-69
2022/05/16 05:23:16;;;;;;;;;;;;;;;18.35;51.88;101100.41;5091800;28;19911;-68
2022/05/16 05:25:42;;;;;;;;;;;;;;;18.43;51.79;101099.69;5090410;28;19991;-68
2022/05/16 05:28:07;;;;;;;;;;;;;;;18.49;51.34;101104.50;5091366;28;19946;-68
2022/05/16 05:30:32;;;;;;;;;;;;;;;18.55;52.17;101095.84;5090021;28;19995;-68
2022/05/16 05:32:58;;;;;;;;;;;;;;;18.60;51.14;101096.28;5090710;28;19919;-68
2022/05/16 05:35:24;;;;;;;;;;;;;;;18.58;51.11;101097.41;5094135;28;19986;-67
2022/05/16 05:37:49;;;;;;;;;;;;;;;18.62;51.44;101104.25;5094122;28;19959;-68
2022/05/16 05:40:15;;;;;;;;;;;;;;;18.66;51.40;101105.66;5092231;28;19963;-68
2022/05/16 05:42:40;;;;;;;;;;;;;;;18.73;50.56;101111.31;5091540;28;20295;-68
2022/05/16 05:45:07;;;;;;;;;;;;;;;18.76;50.03;101119.97;5091717;28;19994;-68
2022/05/16 05:47:32;;;;;;;;;;;;;;;18.84;51.11;101117.41;5089458;28;19912;-68
2022/05/16 05:49:59;;;;;;;;;;;;;;;18.88;50.99;101125.22;5089733;28;20597;-68
2022/05/16 05:52:24;;;;;;;;;;;;;;;18.92;50.08;101122.09;5090562;28;19955;-68
2022/05/16 05:54:49;;;;;;;;;;;;;;;18.90;50.76;101125.94;5092668;28;19963;-68
2022/05/16 05:57:16;;;;;;;;;;;;;;;18.94;50.63;101136.31;5091642;28;19916;-68
2022/05/16 05:59:41;;;;;;;;;;;;;;;18.98;50.81;101131.47;5091098;28;19955;-69
2022/05/16 06:02:10;;;;;;;;;;;;;;;18.98;50.95;101139.56;5091544;28;20425;-68
2022/05/16 06:04:35;;;;;;;;;;;;;;;18.98;50.69;101131.47;5092883;28;19912;-69
2022/05/16 06:07:02;;;;;;;;;;;;;;;19.07;51.45;101135.97;5090082;28;19923;-68
2022/05/16 06:09:29;;;;;;;;;;;;;;;19.15;50.54;101132.53;5091184;28;19912;-68
2022/05/16 06:11:58;;;;;;;;;;;;;;;19.24;52.11;101145.19;5090770;28;19920;-68
2022/05/16 06:14:24;;;;;;;;;;;;;;;19.28;51.05;101144.72;5073718;28;20318;-68
2022/05/16 06:16:49;;;;;;;;;;;;;;;19.29;51.26;101150.97;5091158;28;20920;-69
2022/05/16 06:19:15;;;;;;;;;;;;;;;19.30;50.67;101152.69;5089696;28;20379;-68
2022/05/16 06:21:41;;;;;;;;;;;;;;;19.31;51.24;101148.97;5106862;27;19943;-68
2022/05/16 06:25:31;;;;;;;;;;;;;;;19.26;50.92;101157.50;5090970;28;19919;-68
2022/05/16 06:26:53;;;;;;;;;;;;;;;19.27;51.47;101155.69;5091542;28;19918;-68
2022/05/16 06:29:18;;;;;;;;;;;;;;;19.24;51.68;101156.81;5090896;28;20078;-68
2022/05/16 06:31:44;;;;;;;;;;;;;;;19.24;51.67;101154.13;5090406;28;19918;-68
2022/05/16 06:34:09;;;;;;;;;;;;;;;19.25;51.67;101163.91;5090792;28;20002;-68
2022/05/16 06:36:35;;;;;;;;;;;;;;;19.27;52.00;101164.59;5089411;28;19950;-68
2022/05/16 06:39:01;;;;;;;;;;;;;;;19.27;52.07;101161.06;5087029;28;19922;-68
2022/05/16 06:41:26;;;;;;;;;;;;;;;19.28;51.78;101168.16;5090173;28;19911;-68
2022/05/16 06:43:52;;;;;;;;;;;;;;;19.24;51.73;101167.59;5090635;28;19912;-68
2022/05/16 06:46:18;;;;;;;;;;;;;;;19.25;52.76;101163.91;5093996;28;19916;-68
2022/05/16 06:48:43;;;;;;;;;;;;;;;19.34;51.94;101162.16;5090003;28;20018;-68
2022/05/16 06:51:08;;;;;;;;;;;;;;;19.44;52.78;101171.09;5088123;28;20382;-68
2022/05/16 06:53:36;;;;;;;;;;;;;;;19.48;52.16;101167.09;5092353;28;19912;-68
2022/05/16 06:56:01;;;;;;;;;;;;;;;19.51;51.64;101169.50;5094924;28;19916;-68
2022/05/16 06:58:27;;;;;;;;;;;;;;;19.52;52.07;101165.78;5093426;28;19923;-69
2022/05/16 07:00:52;;;;;;;;;;;;;;;19.56;52.63;101165.50;5094698;28;20481;-68
2022/05/16 07:03:18;;;;;;;;;;;;;;;19.60;51.73;101175.88;5095066;28;19927;-69
2022/05/16 07:05:46;;;;;;;;;;;;;;;19.67;52.42;101177.00;5092627;28;20007;-67
2022/05/16 07:08:14;;;;;;;;;;;;;;;19.75;51.80;101168.16;5096035;28;19919;-69
2022/05/16 07:10:39;;;;;;;;;;;;;;;19.81;51.58;101181.06;5090587;28;19912;-69
2022/05/16 07:13:05;;;;;;;;;;;;;;;19.84;52.18;101179.94;5092582;28;19923;-69
2022/05/16 07:15:30;;;;;;;;;;;;;;;19.91;51.34;101178.31;5092353;28;19922;-68
2022/05/16 07:17:56;;;;;;;;;;;;;;;19.96;52.98;101176.88;5093311;28;19916;-69
2022/05/16 07:20:21;;;;;;;;;;;;;;;20.05;53.38;101188.63;5094940;28;19923;-68
2022/05/16 07:22:50;;;;;;;;;;;;;;;20.16;52.04;101180.31;5092570;28;19951;-69
2022/05/16 07:25:17;;;;;;;;;;;;;;;20.26;53.01;101179.41;5093683;28;19912;-69
2022/05/16 07:27:57;;;;;;;;;;;;;;;20.32;52.97;101184.22;5091864;28;19912;-68
2022/05/16 07:30:27;;;;;;;;;;;;;;;20.40;52.45;101187.00;5092477;28;19916;-68
2022/05/16 07:32:53;;;;;;;;;;;;;;;20.46;52.06;101188.25;5094411;28;20006;-69
2022/05/16 07:35:22;;;;;;;;;;;;;;;20.53;51.52;101181.25;5091302;28;19965;-67
2022/05/16 07:37:47;;;;;;;;;;;;;;;20.61;53.06;101192.16;5092991;28;19916;-68
2022/05/16 07:40:13;;;;;;;;;;;;;;;20.66;52.09;101183.59;5077805;28;19916;-68
2022/05/16 07:42:39;;;;;;;;;;;;;;;20.71;52.73;101190.22;5095444;28;20252;-68
2022/05/16 07:45:06;;;;;;;;;;;;;;;20.76;51.83;101187.03;5093481;28;19927;-68
2022/05/16 07:47:31;;;;;;;;;;;;;;;20.80;52.01;101186.59;5093213;28;19904;-68
2022/05/16 07:49:57;;;;;;;;;;;;;;;20.80;51.48;101200.13;5093506;28;19912;-67
2022/05/16 07:52:22;;;;;;;;;;;;;;;20.79;53.46;101192.16;5098129;28;20282;-68
2022/05/16 07:54:48;;;;;;;;;;;;;;;20.81;52.30;101203.66;5093977;28;19911;-68
2022/05/16 07:57:14;;;;;;;;;;;;;;;20.79;53.08;101206.50;5091130;28;20307;-67
2022/05/16 07:59:41;;;;;;;;;;;;;;;20.81;52.95;101206.38;5089497;28;19912;-69
2022/05/16 08:02:06;;;;;;;;;;;;;;;20.90;53.98;101205.44;5124598;27;19977;-68
2022/05/16 08:04:32;;;;;;;;;;;;;;;21.07;52.97;101204.56;5089742;28;19973;-69
2022/05/16 08:06:58;;;;;;;;;;;;;;;21.16;52.90;101205.50;5127131;27;19922;-68
2022/05/16 08:12:10;;;;;;;;;;;;;;;21.25;52.16;101203.69;5094288;28;19924;-69
2022/05/16 08:14:36;;;;;;;;;;;;;;;21.32;53.25;101204.75;5092219;28;19912;-69
2022/05/16 08:17:01;;;;;;;;;;;;;;;21.46;53.66;101206.91;5092641;28;19923;-69
2022/05/16 08:19:30;;;;;;;;;;;;;;;21.73;53.42;101207.75;5094812;28;20018;-69
2022/05/16 08:21:55;;;;;;;;;;;;;;;22.11;53.23;101219.94;5091624;28;19916;-68
2022/05/16 08:24:21;;;;;;;;;;;;;;;22.48;51.78;101221.47;5092084;28;19923;-69
2022/05/16 08:26:48;;;;;;;;;;;;;;;22.83;50.32;101211.38;5075370;28;19916;-69
2022/05/16 08:29:14;;;;;;;;;;;;;;;23.08;49.07;101220.41;5111015;28;20000;-68
2022/05/16 08:31:41;;;;;;;;;;;;;;;23.33;49.19;101213.94;5113305;28;20007;-69
2022/05/16 08:34:07;;;;;;;;;;;;;;;23.57;48.12;101220.34;5113135;28;20412;-69
2022/05/16 08:42:04;;;;;;;;;;;;;;;24.33;46.54;101218.94;5092773;28;19919;-68
2022/05/16 08:44:32;;;;;;;;;;;;;;;24.54;45.48;101220.22;5087629;28;20339;-69
2022/05/16 08:47:09;;;;;;;;;;;;;;;24.57;45.39;101219.84;5093714;28;19912;-68
2022/05/16 08:50:01;;;;;;;;;;;;;;;24.68;45.45;101220.28;5092043;28;20393;-68
2022/05/16 08:52:34;;;;;;;;;;;;;;;24.87;45.34;101215.41;5091704;28;19912;-69
2022/05/16 08:55:04;;;;;;;;;;;;;;;25.00;45.49;101204.75;5090977;28;19912;-68
2022/05/16 08:57:51;;;;;;;;;;;;;;;25.18;44.98;101209.03;5095336;28;19915;-68
2022/05/16 09:00:19;;;;;;;;;;;;;;;25.32;44.78;101206.34;5094185;28;19912;-69
2022/05/16 09:02:45;;;;;;;;;;;;;;;25.46;43.98;101204.69;5091370;28;20012;-69
2022/05/16 09:05:14;;;;;;;;;;;;;;;25.59;43.56;101209.50;5091210;28;19912;-68
2022/05/16 09:07:39;;;;;;;;;;;;;;;25.85;42.62;101211.78;5091222;28;20389;-69
2022/05/16 09:10:10;;;;;;;;;;;;;;;25.83;43.02;101211.16;5090949;28;20006;-70
2022/05/16 09:12:46;;;;;;;;;;;;;;;25.94;43.60;101217.97;5091149;28;20263;-69
2022/05/16 09:15:32;;;;;;;;;;;;;;;25.97;43.22;101209.44;5088907;28;19912;-68
2022/05/16 09:18:06;;;;;;;;;;;;;;;25.93;43.01;101227.22;5098590;28;20010;-68
2022/05/16 09:20:34;;;;;;;;;;;;;;;25.92;42.59;101218.19;5091258;28;20427;-68
2022/05/16 09:23:10;;;;;;;;;;;;;;;25.87;43.03;101222.50;5093866;28;19928;-69
2022/05/16 09:25:47;;;;;;;;;;;;;;;25.95;43.06;101216.97;5093941;28;19938;-69
2022/05/16 09:31:02;;;;;;;;;;;;;;;26.38;42.14;101217.06;5092034;28;19919;-69
2022/05/16 09:33:29;;;;;;;;;;;;;;;26.42;42.72;101219.25;5092302;28;19919;-69
2022/05/16 09:36:02;;;;;;;;;;;;;;;26.58;41.87;101225.53;5092249;28;19992;-69
2022/05/16 09:38:28;;;;;;;;;;;;;;;26.69;41.30;101228.59;5090394;28;20380;-68
2022/05/16 09:41:02;;;;;;;;;;;;;;;26.75;41.45;101229.72;5090111;28;20018;-69
2022/05/16 09:43:33;;;;;;;;;;;;;;;26.67;40.90;101218.91;5091306;28;20057;-69
2022/05/16 09:46:00;;;;;;;;;;;;;;;26.85;41.00;101237.56;5091723;28;19920;-69
2022/05/16 09:48:25;;;;;;;;;;;;;;;27.02;40.93;101233.53;5088872;28;20306;-69
2022/05/16 09:51:19;;;;;;;;;;;;;;;27.13;41.76;101245.84;5090193;28;19912;-69
2022/05/16 09:53:45;;;;;;;;;;;;;;;27.35;39.58;101249.41;5089388;28;19915;-68
2022/05/16 09:56:20;;;;;;;;;;;;;;;27.38;40.11;101252.63;5090292;28;19912;-69
2022/05/16 09:58:51;;;;;;;;;;;;;;;27.49;39.87;101262.13;5089885;28;20077;-69
2022/05/16 10:01:28;;;;;;;;;;;;;;;27.42;39.94;101260.41;5091187;28;19924;-69
2022/05/16 10:03:53;;;;;;;;;;;;;;;27.33;40.29;101270.63;5087767;28;20371;-70
2022/05/16 10:06:37;;;;;;;;;;;;;;;27.29;40.20;101278.34;5088612;28;20030;-69
2022/05/16 10:09:07;;;;;;;;;;;;;;;27.12;41.09;101279.63;5089271;28;19919;-69
2022/05/16 10:11:33;;;;;;;;;;;;;;;27.02;41.16;101277.22;5087915;28;20010;-69
2022/05/16 10:13:59;;;;;;;;;;;;;;;26.85;41.36;101273.91;5091650;28;20424;-69
2022/05/16 10:16:26;;;;;;;;;;;;;;;26.64;41.82;101290.25;5092016;28;19930;-69
2022/05/16 10:18:53;;;;;;;;;;;;;;;26.42;42.26;101292.91;5090166;28;19916;-68
2022/05/16 10:21:48;;;;;;;;;;;;;;;26.07;44.11;101297.25;5091481;28;20072;-69
2022/05/16 10:24:13;;;;;;;;;;;;;;;25.64;46.26;101312.47;5085381;28;19962;-69
2022/05/16 10:26:41;;;;;;;;;;;;;;;25.34;48.42;101332.28;5091048;28;20080;-69
2022/05/16 10:29:16;;;;;;;;;;;;;;;25.05;50.72;101343.84;5087490;28;19970;-69
2022/05/16 10:34:53;;;;;;;;;;;;;;;24.35;57.37;101351.97;5090082;28;19919;-69
2022/05/16 10:37:20;;;;;;;;;;;;;;;24.17;55.06;101349.47;5086451;28;19924;-68
2022/05/16 10:39:49;;;;;;;;;;;;;;;24.10;58.43;101352.06;5087127;28;19920;-69
2022/05/16 10:42:26;;;;;;;;;;;;;;;24.05;57.53;101354.44;5094359;28;20588;-70
2022/05/16 10:44:52;;;;;;;;;;;;;;;24.23;59.74;101365.94;5089610;28;20380;-68
2022/05/16 10:47:31;;;;;;;;;;;;;;;24.45;56.91;101358.94;5089590;28;19912;-69
2022/05/16 10:50:02;;;;;;;;;;;;;;;24.77;55.45;101367.16;5089666;28;19912;-70
2022/05/16 10:52:44;;;;;;;;;;;;;;;25.02;57.96;101365.16;5091018;28;19916;-69
2022/05/16 10:55:09;;;;;;;;;;;;;;;25.04;57.56;101368.56;5089497;28;20427;-69
2022/05/16 10:57:37;;;;;;;;;;;;;;;25.04;53.81;101371.28;5095998;28;20019;-70
2022/05/16 11:00:06;;;;;;;;;;;;;;;24.90;53.33;101370.16;5091087;28;19912;-69
2022/05/16 11:02:46;;;;;;;;;;;;;;;24.87;53.74;101375.94;5089110;28;19962;-69
2022/05/16 11:05:15;;;;;;;;;;;;;;;24.89;53.82;101374.75;5090576;28;20032;-69
2022/05/16 11:07:43;;;;;;;;;;;;;;;24.79;55.48;101375.97;5090141;28;19916;-69
2022/05/16 11:10:17;;;;;;;;;;;;;;;24.65;54.09;101375.72;5088102;28;19912;-69
2022/05/16 11:12:53;;;;;;;;;;;;;;;24.57;53.44;101375.75;5089262;28;19919;-70
2022/05/16 11:15:21;;;;;;;;;;;;;;;24.47;54.25;101381.38;5090065;28;19919;-70
2022/05/16 11:17:52;;;;;;;;;;;;;;;24.46;53.92;101382.38;5085967;28;19922;-69
2022/05/16 11:20:21;;;;;;;;;;;;;;;24.40;53.96;101382.22;5090198;28;19951;-70
2022/05/16 11:22:52;;;;;;;;;;;;;;;24.37;54.41;101374.41;5088059;28;19912;-70
2022/05/16 11:25:37;;;;;;;;;;;;;;;24.32;54.31;101372.19;5088832;28;19912;-69
2022/05/16 11:28:23;;;;;;;;;;;;;;;24.18;53.63;101381.94;5081570;28;19911;-70
2022/05/16 11:30:53;;;;;;;;;;;;;;;24.10;56.99;101384.66;5091177;28;19916;-70
2022/05/16 11:33:31;;;;;;;;;;;;;;;24.02;59.98;101384.66;5086672;28;20367;-70
2022/05/16 11:35:59;;;;;;;;;;;;;;;23.93;63.28;101382.97;5089382;28;19965;-70
2022/05/16 11:38:33;;;;;;;;;;;;;;;23.84;61.97;101384.00;5089842;28;19931;-70
2022/05/16 11:41:11;;;;;;;;;;;;;;;23.73;60.81;101385.19;5093152;28;19912;-69
2022/05/16 11:43:44;;;;;;;;;;;;;;;23.61;59.68;101398.22;5105208;28;19957;-70
2022/05/16 11:46:18;;;;;;;;;;;;;;;23.53;58.56;101401.81;5093149;28;19987;-70
2022/05/16 11:48:49;;;;;;;;;;;;;;;23.48;57.99;101398.75;5093573;28;19912;-70
2022/05/16 11:51:33;;;;;;;;;;;;;;;23.45;58.71;101399.06;5094367;28;19951;-70
2022/05/16 11:54:03;;;;;;;;;;;;;;;23.44;57.93;101407.38;5092137;28;19920;-70
2022/05/16 12:02:30;;;;;;;;;;;;;;;23.36;57.59;101413.66;5091145;28;19918;-70
2022/05/16 12:05:01;;;;;;;;;;;;;;;23.25;58.51;101422.09;5093536;28;19965;-69
2022/05/16 12:07:31;;;;;;;;;;;;;;;23.12;60.62;101426.16;5093621;28;19919;-69
2022/05/16 12:10:19;;;;;;;;;;;;;;;23.17;59.25;101430.22;5093969;28;20286;-70
2022/05/16 12:12:48;;;;;;;;;;;;;;;23.08;60.92;101432.91;5084985;28;19923;-69
2022/05/16 12:15:18;;;;;;;;;;;;;;;23.23;59.25;101435.81;5094645;28;19912;-69
2022/05/16 12:17:48;;;;;;;;;;;;;;;23.16;60.87;101442.09;5094091;28;19916;-69
2022/05/16 12:20:14;;;;;;;;;;;;;;;23.31;60.05;101440.44;5092617;28;19912;-69
2022/05/16 12:22:39;;;;;;;;;;;;;;;23.15;61.52;101457.53;5091901;28;19918;-68
2022/05/16 12:25:04;;;;;;;;;;;;;;;22.97;62.36;101456.75;5094480;28;19922;-69
2022/05/16 12:27:34;;;;;;;;;;;;;;;22.83;62.13;101458.22;5091892;28;19916;-70
2022/05/16 12:30:01;;;;;;;;;;;;;;;22.76;62.96;101459.84;5093130;28;19980;-70
2022/05/16 12:32:30;;;;;;;;;;;;;;;22.73;63.06;101468.31;5094602;28;19916;-69
2022/05/16 12:35:03;;;;;;;;;;;;;;;22.72;63.91;101472.91;5086974;28;20297;-70
2022/05/16 12:37:29;;;;;;;;;;;;;;;22.71;62.69;101476.63;5090149;28;19916;-69
2022/05/16 12:40:07;;;;;;;;;;;;;;;22.71;63.50;101476.63;5092176;28;19973;-69
2022/05/16 12:42:36;;;;;;;;;;;;;;;22.72;63.83;101478.31;5091305;28;19951;-69
2022/05/16 12:45:04;;;;;;;;;;;;;;;22.73;62.22;101480.00;5094597;28;19912;-68
2022/05/16 12:47:42;;;;;;;;;;;;;;;22.55;63.24;101473.81;5093557;28;20366;-69
2022/05/16 12:50:24;;;;;;;;;;;;;;;22.50;62.75;101482.44;5090663;28;19952;-69
2022/05/16 12:53:08;;;;;;;;;;;;;;;22.46;62.50;101497.31;5090488;28;19969;-69
2022/05/16 12:55:52;;;;;;;;;;;;;;;22.34;62.17;101502.13;5093474;28;19911;-69
2022/05/16 12:58:17;;;;;;;;;;;;;;;22.22;62.14;101506.94;5091123;28;20014;-69
2022/05/16 13:00:46;;;;;;;;;;;;;;;22.21;63.70;101501.69;5091052;28;19955;-69
2022/05/16 13:03:22;;;;;;;;;;;;;;;22.21;62.30;101501.69;5091669;28;19912;-69
2022/05/16 13:06:08;;;;;;;;;;;;;;;22.23;62.86;101513.22;5093463;28;19912;-69
2022/05/16 13:08:47;;;;;;;;;;;;;;;22.15;63.57;101513.97;5086034;28;19919;-68
2022/05/16 13:11:25;;;;;;;;;;;;;;;22.17;62.87;101509.25;5083747;28;19931;-69
2022/05/16 13:14:12;;;;;;;;;;;;;;;22.15;62.99;101519.41;5087483;28;20278;-69
2022/05/16 13:16:50;;;;;;;;;;;;;;;22.25;63.16;101508.50;5091957;28;19936;-71
2022/05/16 13:19:18;;;;;;;;;;;;;;;22.26;63.15;101515.59;5093347;28;20378;-70
2022/05/16 13:21:53;;;;;;;;;;;;;;;22.34;62.72;101512.97;5091095;28;19912;-70
2022/05/16 13:24:23;;;;;;;;;;;;;;;22.44;63.05;101515.56;5086422;28;20442;-70